Time;durP1;ratioP1;P1;durP2;ratioP2;P2;SDS_P1;SDS_P2;PMS_P1;PMS_P2;Temp;Humidity;BMP_temperature;BMP_pressure;BME280_temperature;BME280_humidity;BME280_pressure;Samples;Min_cycle;Max_cycle;Signal;HPM_P1;HPM_P2
2023/02/06 20:17:20;;;;;;;13.45;5.35;;;3.20;99.90;;;;;;5173588;27;20106;-66
2023/02/06 20:19:46;;;;;;;22.80;8.10;;;3.20;99.90;;;;;;5140818;27;20031;-68
2023/02/06 20:22:11;;;;;;;16.83;7.87;;;3.30;99.90;;;;;;5131821;28;20369;-68
2023/02/06 20:24:37;;;;;;;10.17;5.23;;;3.40;99.90;;;;;;5112772;28;20026;-68
2023/02/06 20:27:06;;;;;;;8.20;4.30;;;3.40;99.90;;;;;;5131236;28;20030;-68
2023/02/06 20:29:35;;;;;;;11.63;5.43;;;3.50;99.90;;;;;;5130859;27;20022;-70
2023/02/06 20:32:03;;;;;;;9.30;5.20;;;3.50;99.90;;;;;;5113080;28;20468;-70
2023/02/06 20:34:29;;;;;;;6.07;3.83;;;3.60;99.90;;;;;;5124682;28;20340;-66
2023/02/06 20:36:55;;;;;;;12.13;4.60;;;3.60;99.90;;;;;;5128153;28;20028;-66
2023/02/06 20:39:21;;;;;;;7.10;3.40;;;3.70;99.90;;;;;;5108656;28;20026;-65
2023/02/06 20:41:48;;;;;;;7.10;3.33;;;3.70;99.90;;;;;;5130115;28;20027;-67
2023/02/06 20:44:14;;;;;;;6.70;3.35;;;3.70;99.90;;;;;;5112872;28;20021;-67
2023/02/06 20:46:41;;;;;;;5.38;2.58;;;3.70;99.90;;;;;;5131311;28;20038;-66
2023/02/06 20:49:13;;;;;;;5.93;3.05;;;3.70;99.90;;;;;;5131038;28;20479;-66
2023/02/06 20:51:39;;;;;;;6.05;3.20;;;3.70;99.90;;;;;;5131226;28;20031;-66
2023/02/06 20:54:05;;;;;;;5.37;3.00;;;3.70;99.90;;;;;;5130970;28;20027;-66
2023/02/06 20:56:31;;;;;;;5.60;3.22;;;3.80;99.90;;;;;;5112243;28;20114;-65
2023/02/06 20:59:00;;;;;;;5.68;3.03;;;3.70;99.90;;;;;;5130491;28;20042;-66
2023/02/06 21:01:27;;;;;;;4.88;2.92;;;3.60;99.90;;;;;;5113068;28;20457;-66
2023/02/06 21:03:56;;;;;;;5.53;3.45;;;3.50;99.90;;;;;;5131253;28;20048;-66
2023/02/06 21:06:22;;;;;;;7.18;3.58;;;3.40;99.90;;;;;;5112535;28;20467;-67
2023/02/06 21:08:49;;;;;;;4.63;3.25;;;3.30;99.90;;;;;;5112910;28;20050;-66
2023/02/06 21:11:15;;;;;;;5.07;3.20;;;3.20;99.90;;;;;;5136230;28;20024;-67
2023/02/06 21:13:41;;;;;;;8.25;3.72;;;3.20;99.90;;;;;;5132034;28;20027;-67
2023/02/06 21:16:08;;;;;;;4.60;2.70;;;3.10;99.90;;;;;;5111981;28;20031;-67
2023/02/06 21:18:34;;;;;;;5.20;2.90;;;3.10;99.90;;;;;;5130815;27;20082;-66
2023/02/06 21:21:10;;;;;;;5.93;3.27;;;3.30;99.90;;;;;;5112027;28;20373;-67
2023/02/06 21:23:37;;;;;;;4.93;3.22;;;3.20;99.90;;;;;;5112064;28;20077;-67
2023/02/06 21:26:04;;;;;;;4.82;3.10;;;3.20;99.90;;;;;;5130985;28;20027;-67
2023/02/06 21:28:30;;;;;;;;;;;3.20;99.90;;;;;;5125137;28;20069;-67
2023/02/06 21:31:01;;;;;;;5.10;3.17;;;3.30;99.90;;;;;;5120859;28;19904;-67
2023/02/06 21:33:27;;;;;;;5.07;2.67;;;3.30;99.90;;;;;;5121293;28;20031;-67
2023/02/06 21:35:52;;;;;;;4.70;3.28;;;3.30;99.90;;;;;;5102202;28;20468;-67
2023/02/06 21:38:19;;;;;;;12.47;5.93;;;3.20;99.90;;;;;;5120194;28;20024;-67
2023/02/06 21:40:45;;;;;;;8.77;4.70;;;3.20;99.90;;;;;;5117974;28;20253;-66
2023/02/06 21:43:13;;;;;;;3.95;2.88;;;3.20;99.90;;;;;;5097869;28;20404;-65
2023/02/06 21:45:39;;;;;;;4.72;3.03;;;3.20;99.90;;;;;;5116538;28;20108;-66
2023/02/06 21:48:05;;;;;;;6.57;3.22;;;3.10;99.90;;;;;;5118537;28;20031;-65
2023/02/06 21:50:30;;;;;;;4.50;3.03;;;3.10;99.90;;;;;;5119357;28;20038;-66
2023/02/06 21:52:56;;;;;;;6.00;3.80;;;3.10;99.90;;;;;;5101350;28;20066;-65
2023/02/06 21:55:22;;;;;;;8.10;4.17;;;3.10;99.90;;;;;;5120732;28;20289;-65
2023/02/06 21:57:48;;;;;;;8.98;3.60;;;3.10;99.90;;;;;;5116881;28;20039;-66
2023/02/06 22:00:14;;;;;;;5.53;3.30;;;3.10;99.90;;;;;;5097511;28;20443;-66
2023/02/06 22:02:39;;;;;;;5.88;3.33;;;3.10;99.90;;;;;;5116309;28;20032;-66
2023/02/06 22:05:06;;;;;;;5.57;3.07;;;3.10;99.90;;;;;;5097880;28;20023;-68
2023/02/06 22:07:35;;;;;;;5.13;3.00;;;3.00;99.90;;;;;;5116354;28;20085;-67
2023/02/06 22:10:02;;;;;;;6.70;3.85;;;3.00;99.90;;;;;;5118304;28;20024;-66
2023/02/06 22:12:28;;;;;;;6.75;3.85;;;3.00;99.90;;;;;;5099304;28;20019;-67
2023/02/06 22:14:53;;;;;;;6.33;3.80;;;3.00;99.90;;;;;;5121096;28;20462;-69
2023/02/06 22:17:19;;;;;;;5.90;3.23;;;3.00;99.90;;;;;;5104731;28;20145;-67
2023/02/06 22:19:44;;;;;;;5.87;3.70;;;3.00;99.90;;;;;;5123322;28;20027;-67
2023/02/06 22:22:11;;;;;;;6.53;3.80;;;3.00;99.90;;;;;;5103107;28;20150;-67
2023/02/06 22:24:37;;;;;;;6.47;3.45;;;3.00;99.90;;;;;;5122038;28;20097;-67
2023/02/06 22:27:02;;;;;;;6.55;3.92;;;3.00;99.90;;;;;;5103513;28;20027;-67
2023/02/06 22:29:29;;;;;;;5.70;3.53;;;3.00;99.90;;;;;;5122634;28;20110;-67
2023/02/06 22:31:54;;;;;;;5.93;3.38;;;2.90;99.90;;;;;;5122086;28;20156;-66
2023/02/06 22:34:20;;;;;;;5.70;3.13;;;3.00;99.90;;;;;;5123474;28;20516;-66
2023/02/06 22:36:47;;;;;;;7.28;3.33;;;3.00;99.90;;;;;;5099736;28;20023;-65
2023/02/06 22:39:13;;;;;;;5.80;3.42;;;2.90;99.90;;;;;;5115513;28;20020;-66
2023/02/06 22:41:42;;;;;;;6.00;3.55;;;2.90;99.90;;;;;;5115627;28;20029;-66
2023/02/06 22:44:11;;;;;;;5.43;3.30;;;2.80;99.90;;;;;;5096475;28;20038;-66
2023/02/06 22:46:38;;;;;;;7.43;3.92;;;2.80;99.90;;;;;;5096551;28;20054;-66
2023/02/06 22:49:07;;;;;;;6.13;3.92;;;2.70;99.90;;;;;;5114887;28;20085;-66
2023/02/06 22:51:34;;;;;;;5.18;3.65;;;2.70;99.90;;;;;;5114358;28;20027;-66
2023/02/06 22:54:00;;;;;;;5.35;3.58;;;2.60;99.90;;;;;;5114859;28;20031;-66
2023/02/06 22:56:29;;;;;;;5.63;3.65;;;2.60;99.90;;;;;;5114542;28;20115;-65
2023/02/06 22:59:00;;;;;;;7.75;4.85;;;2.60;99.90;;;;;;5114243;28;20023;-66
2023/02/06 23:01:31;;;;;;;8.60;3.55;;;2.60;99.90;;;;;;5115380;28;20024;-66
2023/02/06 23:03:59;;;;;;;7.45;4.07;;;2.50;99.90;;;;;;5096747;28;20340;-65
2023/02/06 23:06:26;;;;;;;5.25;3.42;;;2.50;99.90;;;;;;5115477;28;20024;-66
2023/02/06 23:08:52;;;;;;;6.72;3.53;;;2.40;99.90;;;;;;5098061;28;20028;-66
2023/02/06 23:11:18;;;;;;;8.07;3.80;;;2.40;99.90;;;;;;5115714;28;20046;-66
2023/02/06 23:13:44;;;;;;;6.72;4.25;;;2.30;99.90;;;;;;5114040;28;20487;-67
2023/02/06 23:16:09;;;;;;;6.17;3.67;;;2.20;99.90;;;;;;5114023;28;20070;-67
2023/02/06 23:18:36;;;;;;;5.93;3.80;;;2.20;99.90;;;;;;5114461;28;20020;-66
2023/02/06 23:21:04;;;;;;;;;;;2.10;99.90;;;;;;5115215;28;20476;-66
2023/02/06 23:23:30;;;;;;;5.57;3.30;;;2.10;99.90;;;;;;5114521;28;19904;-65
2023/02/06 23:25:56;;;;;;;7.75;3.92;;;2.00;99.90;;;;;;5115005;28;20118;-68
2023/02/06 23:28:23;;;;;;;22.70;9.88;;;2.00;99.90;;;;;;5096153;28;20024;-66
2023/02/06 23:30:49;;;;;;;6.97;4.10;;;2.00;99.90;;;;;;5096061;28;20037;-67
2023/02/06 23:33:15;;;;;;;5.17;3.93;;;2.00;99.90;;;;;;5114402;28;20106;-66
2023/02/06 23:35:40;;;;;;;7.93;4.37;;;2.00;99.90;;;;;;5113993;28;20281;-66
2023/02/06 23:38:07;;;;;;;7.63;4.25;;;2.00;99.90;;;;;;5114481;28;20016;-66
2023/02/06 23:40:33;;;;;;;;;;;1.90;99.90;;;;;;5095934;28;20100;-65
2023/02/06 23:43:00;;;;;;;7.38;4.55;;;2.00;99.90;;;;;;5094953;28;19904;-67
2023/02/06 23:45:25;;;;;;;7.10;4.13;;;2.00;99.90;;;;;;5095494;28;20028;-66
2023/02/06 23:47:51;;;;;;;6.22;4.22;;;2.00;99.90;;;;;;5113861;28;20088;-67
2023/02/06 23:50:18;;;;;;;7.57;4.55;;;2.00;99.90;;;;;;5113028;28;20023;-67
2023/02/06 23:52:44;;;;;;;;;;;1.90;99.90;;;;;;5114195;28;20027;-66
2023/02/06 23:55:10;;;;;;;8.75;5.47;;;1.90;99.90;;;;;;5113673;28;19910;-66
2023/02/06 23:57:36;;;;;;;8.48;4.50;;;1.90;99.90;;;;;;5095822;28;20062;-66
